createdAt,value
2018-04-18T00:01:20.414Z,5.57
2018-04-18T00:03:48.660Z,5.50
2018-04-18T00:06:16.945Z,5.13
2018-04-18T00:08:45.241Z,5.57
2018-04-18T00:11:13.507Z,5.30
2018-04-18T00:13:41.794Z,5.33
2018-04-18T00:16:10.097Z,5.10
2018-04-18T00:18:38.361Z,5.40
2018-04-18T00:21:06.650Z,5.33
2018-04-18T00:23:34.933Z,5.40
2018-04-18T00:26:03.239Z,5.83
2018-04-18T00:28:31.567Z,5.10
2018-04-18T00:31:00.163Z,5.13
2018-04-18T00:33:28.438Z,5.33
2018-04-18T00:35:56.721Z,5.10
2018-04-18T00:38:24.998Z,5.47
2018-04-18T00:40:53.736Z,5.27
2018-04-18T00:43:22.147Z,5.03
2018-04-18T00:45:50.736Z,5.70
2018-04-18T00:48:19.319Z,5.57
2018-04-18T00:50:47.604Z,5.17
2018-04-18T00:53:15.880Z,5.80
2018-04-18T00:55:46.767Z,5.33
2018-04-18T00:58:15.056Z,5.87
2018-04-18T01:00:43.376Z,5.40
2018-04-18T01:03:11.646Z,6.10
2018-04-18T01:05:39.950Z,5.67
2018-04-18T01:08:08.266Z,6.10
2018-04-18T01:10:36.571Z,5.70
2018-04-18T01:13:04.885Z,5.73
2018-04-18T01:15:33.591Z,6.13
2018-04-18T01:18:01.861Z,6.13
2018-04-18T01:20:30.160Z,5.80
2018-04-18T01:22:58.445Z,6.10
2018-04-18T01:25:26.742Z,6.00
2018-04-18T01:27:55.012Z,5.90
2018-04-18T01:30:23.334Z,5.17
2018-04-18T01:32:51.630Z,6.17
2018-04-18T01:35:20.150Z,5.80
2018-04-18T01:37:48.521Z,6.13
2018-04-18T01:40:16.862Z,5.73
2018-04-18T01:42:45.173Z,6.37
2018-04-18T01:45:13.448Z,6.50
2018-04-18T01:47:41.727Z,5.80
2018-04-18T01:50:10.662Z,6.00
2018-04-18T01:52:40.771Z,6.43
2018-04-18T01:55:11.426Z,5.97
2018-04-18T01:57:42.210Z,6.20
2018-04-18T02:00:10.897Z,6.23
2018-04-18T02:02:39.364Z,6.40
2018-04-18T02:05:11.682Z,6.53
2018-04-18T02:07:42.237Z,6.10
2018-04-18T02:10:10.556Z,6.20
2018-04-18T02:12:42.432Z,5.53
2018-04-18T02:15:11.792Z,5.70
2018-04-18T02:17:40.081Z,5.80
2018-04-18T02:20:08.462Z,5.47
2018-04-18T02:22:36.784Z,6.10
2018-04-18T02:25:05.708Z,6.20
2018-04-18T02:27:36.708Z,6.20
2018-04-18T02:30:06.080Z,5.83
2018-04-18T02:32:34.322Z,5.67
2018-04-18T02:35:09.030Z,5.53
2018-04-18T02:37:39.197Z,6.30
2018-04-18T02:40:07.477Z,5.57
2018-04-18T02:42:36.312Z,6.13
2018-04-18T02:45:07.757Z,5.80
2018-04-18T02:47:47.174Z,5.27
2018-04-18T02:50:26.520Z,5.93
2018-04-18T02:55:48.369Z,6.20
2018-04-18T02:58:17.517Z,6.33
2018-04-18T03:00:45.807Z,6.03
2018-04-18T03:03:14.127Z,5.77
2018-04-18T03:05:42.398Z,5.90
2018-04-18T03:08:10.747Z,6.27
2018-04-18T03:10:39.025Z,6.00
2018-04-18T03:13:07.329Z,5.63
2018-04-18T03:15:35.996Z,5.37
2018-04-18T03:18:04.333Z,5.97
2018-04-18T03:20:32.614Z,5.90
2018-04-18T03:23:00.937Z,6.10
2018-04-18T03:25:29.609Z,6.03
2018-04-18T03:27:58.304Z,6.43
2018-04-18T03:30:26.999Z,6.20
2018-04-18T03:32:55.682Z,5.67
2018-04-18T03:35:23.960Z,6.50
2018-04-18T03:37:52.288Z,6.43
2018-04-18T03:40:20.575Z,6.30
2018-04-18T03:42:49.181Z,7.10
2018-04-18T03:45:17.457Z,6.50
2018-04-18T03:47:45.925Z,6.60
2018-04-18T03:50:14.620Z,6.90
2018-04-18T03:52:42.907Z,6.93
2018-04-18T03:55:11.207Z,7.23
2018-04-18T03:57:39.741Z,6.57
2018-04-18T04:00:08.454Z,7.23
2018-04-18T04:02:36.892Z,7.80
2018-04-18T04:05:05.158Z,7.20
2018-04-18T04:07:33.536Z,7.20
2018-04-18T04:10:01.822Z,7.53
2018-04-18T04:12:30.131Z,7.17
2018-04-18T04:14:58.469Z,7.67
2018-04-18T04:17:38.793Z,7.63
2018-04-18T04:20:19.663Z,7.57
2018-04-18T04:25:47.454Z,7.87
2018-04-18T04:28:15.720Z,8.00
2018-04-18T04:30:44.860Z,7.90
2018-04-18T04:33:13.168Z,8.30
2018-04-18T04:35:41.522Z,8.00
2018-04-18T04:38:09.805Z,8.53
2018-04-18T04:40:38.853Z,8.50
2018-04-18T04:43:07.621Z,8.50
2018-04-18T04:45:35.927Z,9.20
2018-04-18T04:48:04.207Z,8.87
2018-04-18T04:50:32.532Z,9.07
2018-04-18T04:53:01.229Z,9.30
2018-04-18T04:55:29.909Z,8.87
2018-04-18T05:00:32.746Z,9.07
2018-04-18T05:03:01.079Z,9.10
2018-04-18T05:05:29.353Z,8.70
2018-04-18T05:07:57.646Z,9.37
2018-04-18T05:10:26.559Z,9.57
2018-04-18T05:12:54.859Z,9.77
2018-04-18T05:15:23.145Z,9.23
2018-04-18T05:17:51.480Z,10.83
2018-04-18T05:20:19.792Z,9.93
2018-04-18T05:22:48.084Z,9.50
2018-04-18T05:25:16.943Z,9.83
2018-04-18T05:27:45.299Z,9.97
2018-04-18T05:30:14.948Z,10.40
2018-04-18T05:32:43.379Z,9.93
2018-04-18T05:35:12.059Z,10.20
2018-04-18T05:37:40.736Z,10.63
2018-04-18T05:40:09.022Z,10.87
2018-04-18T05:42:37.732Z,11.30
2018-04-18T05:45:06.020Z,11.40
2018-04-18T05:47:34.314Z,11.30
2018-04-18T05:50:02.629Z,11.50
2018-04-18T05:52:31.392Z,12.27
2018-04-18T05:54:59.684Z,11.60
2018-04-18T05:57:28.022Z,11.20
2018-04-18T05:59:56.322Z,11.90
2018-04-18T06:02:24.613Z,12.37
2018-04-18T06:04:53.196Z,11.00
2018-04-18T06:07:21.537Z,12.20
2018-04-18T06:09:49.819Z,12.40
2018-04-18T06:12:18.550Z,12.27
2018-04-18T06:14:46.851Z,11.37
2018-04-18T06:17:15.138Z,11.67
2018-04-18T06:19:43.417Z,12.10
2018-04-18T06:22:11.828Z,13.00
2018-04-18T06:24:40.104Z,12.20
2018-04-18T06:27:08.398Z,12.40
2018-04-18T06:29:36.725Z,7.10
2018-04-18T06:32:05.000Z,5.47
2018-04-18T06:34:33.487Z,5.43
2018-04-18T06:37:01.794Z,6.20
2018-04-18T06:39:30.171Z,6.70
2018-04-18T06:41:58.454Z,6.73
2018-04-18T06:44:26.741Z,6.30
2018-04-18T06:46:55.464Z,6.97
2018-04-18T06:49:23.769Z,7.27
2018-04-18T06:51:52.052Z,6.93
2018-04-18T06:54:20.576Z,7.30
2018-04-18T06:56:49.286Z,7.50
2018-04-18T06:59:17.832Z,6.67
2018-04-18T07:01:46.115Z,7.10
2018-04-18T07:04:14.468Z,7.93
2018-04-18T07:06:42.788Z,7.40
2018-04-18T07:09:11.468Z,9.10
2018-04-18T07:11:40.222Z,7.67
2018-04-18T07:14:08.625Z,7.67
2018-04-18T07:16:36.901Z,8.00
2018-04-18T07:19:05.208Z,7.20
2018-04-18T07:21:33.518Z,7.70
2018-04-18T07:24:01.831Z,8.77
2018-04-18T07:26:30.533Z,7.80
2018-04-18T07:28:58.820Z,8.07
2018-04-18T07:31:27.119Z,8.80
2018-04-18T07:33:55.440Z,7.80
2018-04-18T07:36:23.737Z,8.30
2018-04-18T07:38:52.416Z,8.70
2018-04-18T07:41:21.168Z,7.57
2018-04-18T07:43:49.448Z,9.30
2018-04-18T07:46:17.831Z,8.00
2018-04-18T07:48:46.138Z,8.20
2018-04-18T07:51:14.819Z,8.70
2018-04-18T07:53:43.492Z,8.63
2018-04-18T07:56:11.793Z,8.50
2018-04-18T07:58:40.083Z,8.07
2018-04-18T08:01:09.306Z,7.50
2018-04-18T08:03:37.590Z,8.30
2018-04-18T08:06:05.948Z,7.60
2018-04-18T08:08:34.285Z,6.87
2018-04-18T08:11:02.604Z,6.80
2018-04-18T08:13:30.890Z,6.70
2018-04-18T08:15:59.204Z,6.53
2018-04-18T08:18:27.486Z,6.20
2018-04-18T08:20:56.248Z,5.40
2018-04-18T08:23:24.963Z,5.20
2018-04-18T08:25:53.646Z,5.93
2018-04-18T08:28:21.989Z,5.70
2018-04-18T08:30:50.599Z,6.00
2018-04-18T08:33:19.184Z,5.70
2018-04-18T08:38:22.085Z,4.30
2018-04-18T08:40:50.524Z,5.03
2018-04-18T08:43:18.813Z,4.40
2018-04-18T08:45:47.113Z,4.20
2018-04-18T08:48:15.444Z,4.83
2018-04-18T08:50:43.728Z,4.63
2018-04-18T08:53:11.997Z,4.50
2018-04-18T08:55:40.303Z,4.80
2018-04-18T08:58:08.591Z,4.70
2018-04-18T09:00:36.876Z,4.63
2018-04-18T09:03:05.866Z,4.30
2018-04-18T09:05:35.091Z,4.40
2018-04-18T09:08:03.413Z,4.97
2018-04-18T09:10:31.721Z,4.30
2018-04-18T09:13:01.008Z,4.87
2018-04-18T09:15:29.289Z,4.27
2018-04-18T09:17:57.589Z,4.03
2018-04-18T09:20:25.884Z,4.60
2018-04-18T09:22:54.161Z,4.10
2018-04-18T09:25:22.454Z,4.07
2018-04-18T09:27:50.748Z,4.00
2018-04-18T09:30:19.359Z,4.20
2018-04-18T09:32:47.628Z,4.50
2018-04-18T09:35:15.907Z,4.20
2018-04-18T09:37:44.239Z,4.33
2018-04-18T09:40:12.553Z,4.20
2018-04-18T09:42:40.829Z,4.03
2018-04-18T09:45:09.192Z,4.20
2018-04-18T09:47:37.474Z,4.10
2018-04-18T09:50:05.757Z,3.73
2018-04-18T09:52:34.054Z,3.70
2018-04-18T09:55:02.324Z,3.90
2018-04-18T09:57:30.910Z,3.70
2018-04-18T09:59:59.253Z,4.10
2018-04-18T10:02:29.489Z,4.20
2018-04-18T10:05:12.843Z,4.10
2018-04-18T10:07:41.137Z,3.63
2018-04-18T10:10:09.818Z,3.50
2018-04-18T10:12:38.573Z,3.77
2018-04-18T10:15:06.842Z,4.00
2018-04-18T10:17:35.444Z,3.30
2018-04-18T10:20:03.821Z,3.80
2018-04-18T10:22:32.150Z,3.40
2018-04-18T10:25:00.439Z,3.60
2018-04-18T10:27:28.768Z,3.60
2018-04-18T10:29:57.118Z,3.90
2018-04-18T10:32:25.496Z,3.60
2018-04-18T10:34:53.796Z,3.43
2018-04-18T10:37:22.477Z,3.90
2018-04-18T10:39:50.740Z,3.40
2018-04-18T10:42:19.057Z,3.80
2018-04-18T10:44:47.326Z,3.50
2018-04-18T10:47:16.036Z,3.40
2018-04-18T10:49:44.338Z,3.70
2018-04-18T10:52:12.612Z,3.30
2018-04-18T10:54:41.630Z,3.13
2018-04-18T10:57:09.944Z,3.23
2018-04-18T10:59:38.238Z,3.40
2018-04-18T11:02:06.878Z,3.00
2018-04-18T11:04:35.148Z,2.93
2018-04-18T11:07:03.679Z,3.20
2018-04-18T11:09:31.961Z,3.33
2018-04-18T11:12:00.248Z,3.53
2018-04-18T11:14:28.556Z,3.50
2018-04-18T11:16:56.923Z,3.30
2018-04-18T11:19:25.303Z,3.20
2018-04-18T11:21:53.678Z,3.30
2018-04-18T11:24:22.030Z,3.43
2018-04-18T11:26:50.341Z,3.53
2018-04-18T11:29:18.637Z,3.40
2018-04-18T11:31:47.091Z,3.77
2018-04-18T11:34:15.455Z,3.27
2018-04-18T11:36:43.765Z,3.50
2018-04-18T11:39:12.050Z,3.30
2018-04-18T11:41:40.729Z,3.60
2018-04-18T11:44:09.088Z,3.10
2018-04-18T11:46:37.358Z,3.03
2018-04-18T11:49:05.742Z,3.50
2018-04-18T11:51:34.045Z,3.37
2018-04-18T11:54:02.323Z,3.30
2018-04-18T11:56:31.092Z,3.20
2018-04-18T11:58:59.560Z,3.30
2018-04-18T12:01:28.167Z,2.90
2018-04-18T12:03:56.557Z,3.30
2018-04-18T12:06:25.313Z,2.83
2018-04-18T12:08:53.691Z,2.97
2018-04-18T12:11:22.197Z,3.00
2018-04-18T12:13:50.510Z,3.33
2018-04-18T12:16:18.826Z,3.03
2018-04-18T12:18:47.147Z,3.00
2018-04-18T12:21:15.683Z,3.00
2018-04-18T12:23:44.082Z,2.97
2018-04-18T12:26:12.442Z,3.00
2018-04-18T12:28:40.942Z,2.90
2018-04-18T12:31:09.257Z,2.83
2018-04-18T12:33:37.593Z,2.50
2018-04-18T12:36:05.918Z,2.53
2018-04-18T12:38:34.238Z,2.97
2018-04-18T12:41:02.537Z,2.80
2018-04-18T12:43:30.818Z,2.60
2018-04-18T12:45:59.524Z,2.60
2018-04-18T12:48:27.843Z,3.00
2018-04-18T12:50:56.132Z,3.10
2018-04-18T12:53:24.408Z,2.90
2018-04-18T12:55:52.750Z,2.73
2018-04-18T12:58:21.036Z,2.80
2018-04-18T13:00:49.346Z,2.60
2018-04-18T13:03:17.687Z,2.67
2018-04-18T13:05:45.987Z,2.70
2018-04-18T13:08:14.721Z,2.70
2018-04-18T13:10:43.018Z,2.80
2018-04-18T13:13:11.321Z,2.80
2018-04-18T13:15:39.804Z,3.03
2018-04-18T13:18:08.511Z,3.90
2018-04-18T13:20:36.776Z,3.30
2018-04-18T13:23:05.100Z,3.03
2018-04-18T13:25:33.399Z,3.27
2018-04-18T13:28:01.691Z,3.10
2018-04-18T13:30:30.026Z,3.57
2018-04-18T13:32:58.574Z,3.03
2018-04-18T13:35:26.845Z,3.10
2018-04-18T13:37:55.217Z,2.80
2018-04-18T13:40:23.492Z,3.10
2018-04-18T13:42:52.080Z,3.07
2018-04-18T13:45:20.382Z,3.50
2018-04-18T13:47:49.078Z,3.50
2018-04-18T13:50:17.404Z,3.20
2018-04-18T13:52:45.693Z,3.17
2018-04-18T13:55:14.192Z,3.50
2018-04-18T13:57:42.497Z,3.60
2018-04-18T14:00:11.154Z,3.50
2018-04-18T14:02:39.648Z,3.00
2018-04-18T14:05:08.170Z,3.30
2018-04-18T14:07:36.493Z,3.60
2018-04-18T14:10:05.335Z,4.03
2018-04-18T14:12:33.621Z,4.20
2018-04-18T14:15:01.890Z,3.87
2018-04-18T14:17:30.257Z,3.70
2018-04-18T14:19:58.575Z,3.97
2018-04-18T14:22:26.942Z,4.00
2018-04-18T14:24:55.241Z,4.10
2018-04-18T14:27:23.529Z,3.50
2018-04-18T14:29:51.836Z,3.40
2018-04-18T14:32:20.161Z,3.73
2018-04-18T14:34:48.441Z,3.53
2018-04-18T14:37:16.740Z,3.47
2018-04-18T14:39:45.420Z,4.20
2018-04-18T14:42:14.089Z,3.27
2018-04-18T14:44:42.457Z,3.70
2018-04-18T14:47:10.750Z,3.53
2018-04-18T14:49:39.025Z,3.57
2018-04-18T14:52:07.340Z,3.60
2018-04-18T14:54:35.634Z,3.57
2018-04-18T14:57:03.914Z,3.60
2018-04-18T14:59:32.231Z,3.10
2018-04-18T15:02:00.500Z,3.80
2018-04-18T15:04:28.792Z,3.43
2018-04-18T15:06:57.064Z,3.30
2018-04-18T15:09:25.366Z,3.70
2018-04-18T15:11:54.074Z,3.43
2018-04-18T15:14:22.696Z,3.60
2018-04-18T15:16:51.063Z,3.90
2018-04-18T15:19:19.368Z,3.37
2018-04-18T15:21:47.681Z,3.80
2018-04-18T15:24:15.954Z,3.80
2018-04-18T15:26:44.240Z,3.90
2018-04-18T15:29:12.514Z,4.67
2018-04-18T15:31:40.808Z,3.40
2018-04-18T15:34:09.088Z,3.83
2018-04-18T15:36:37.405Z,3.50
2018-04-18T15:39:05.668Z,3.90
2018-04-18T15:41:33.985Z,3.60
2018-04-18T15:44:02.276Z,3.90
2018-04-18T15:46:30.590Z,4.10
2018-04-18T15:48:58.865Z,3.90
2018-04-18T15:51:27.148Z,4.30
2018-04-18T15:53:55.434Z,3.87
2018-04-18T15:56:23.742Z,3.80
2018-04-18T15:58:52.406Z,3.83
2018-04-18T16:01:21.077Z,4.07
2018-04-18T16:03:50.027Z,4.27
2018-04-18T16:06:18.305Z,4.20
2018-04-18T16:08:46.608Z,4.20
2018-04-18T16:11:14.914Z,4.47
2018-04-18T16:13:43.583Z,4.23
2018-04-18T16:16:12.161Z,4.23
2018-04-18T16:18:40.508Z,4.37
2018-04-18T16:21:08.897Z,4.93
2018-04-18T16:23:37.183Z,4.27
2018-04-18T16:26:05.512Z,4.97
2018-04-18T16:28:33.827Z,4.17
2018-04-18T16:31:02.109Z,4.53
2018-04-18T16:33:30.722Z,4.80
2018-04-18T16:35:59.461Z,5.40
2018-04-18T16:38:27.745Z,5.00
2018-04-18T16:40:56.089Z,6.03
2018-04-18T16:43:24.412Z,5.77
2018-04-18T16:45:52.713Z,7.07
2018-04-18T16:48:20.997Z,5.73
2018-04-18T16:50:49.305Z,5.70
2018-04-18T16:53:17.619Z,6.10
2018-04-18T16:55:45.904Z,5.50
2018-04-18T16:58:14.216Z,5.73
2018-04-18T17:00:43.885Z,5.20
2018-04-18T17:03:12.163Z,5.40
2018-04-18T17:05:40.470Z,4.87
2018-04-18T17:08:08.817Z,5.70
2018-04-18T17:10:37.729Z,5.53
2018-04-18T17:13:06.020Z,5.70
2018-04-18T17:15:34.682Z,6.43
2018-04-18T17:18:03.042Z,7.17
2018-04-18T17:20:31.381Z,7.00
2018-04-18T17:22:59.655Z,7.00
2018-04-18T17:25:27.932Z,6.40
2018-04-18T17:27:56.245Z,6.53
2018-04-18T17:30:24.520Z,6.30
2018-04-18T17:32:52.791Z,6.20
2018-04-18T17:35:21.145Z,6.40
2018-04-18T17:37:49.465Z,7.70
2018-04-18T17:40:17.834Z,7.63
2018-04-18T17:42:46.108Z,7.80
2018-04-18T17:45:14.402Z,6.93
2018-04-18T17:47:42.712Z,5.33
2018-04-18T17:50:11.074Z,6.63
2018-04-18T17:52:39.749Z,7.60
2018-04-18T17:55:08.068Z,8.00
2018-04-18T17:57:36.344Z,7.03
2018-04-18T18:00:04.626Z,7.17
2018-04-18T18:02:32.897Z,7.97
2018-04-18T18:05:01.257Z,5.70
2018-04-18T18:07:29.928Z,8.70
2018-04-18T18:09:58.238Z,7.70
2018-04-18T18:12:26.555Z,8.10
2018-04-18T18:14:54.830Z,8.10
2018-04-18T18:17:23.408Z,9.77
2018-04-18T18:19:51.899Z,9.97
2018-04-18T18:22:20.813Z,9.13
2018-04-18T18:24:49.144Z,9.40
2018-04-18T18:27:18.988Z,9.47
2018-04-18T18:29:47.352Z,9.80
2018-04-18T18:32:16.159Z,9.40
2018-04-18T18:34:44.463Z,10.20
2018-04-18T18:37:13.123Z,9.33
2018-04-18T18:39:41.909Z,10.10
2018-04-18T18:42:10.200Z,10.00
2018-04-18T18:44:38.921Z,9.67
2018-04-18T18:47:07.216Z,10.87
2018-04-18T18:49:35.504Z,9.90
2018-04-18T18:52:03.818Z,9.40
2018-04-18T18:54:32.791Z,9.20
2018-04-18T18:57:01.084Z,10.80
2018-04-18T18:59:29.430Z,11.57
2018-04-18T19:01:58.314Z,10.73
2018-04-18T19:04:26.620Z,11.77
2018-04-18T19:06:55.384Z,12.70
2018-04-18T19:09:23.671Z,11.07
2018-04-18T19:11:51.963Z,10.20
2018-04-18T19:14:20.997Z,10.20
2018-04-18T19:16:49.653Z,11.00
2018-04-18T19:19:18.000Z,11.20
2018-04-18T19:21:46.341Z,12.23
2018-04-18T19:24:14.645Z,11.17
2018-04-18T19:26:42.943Z,10.70
2018-04-18T19:29:11.909Z,11.27
2018-04-18T19:31:40.600Z,11.80
2018-04-18T19:34:08.914Z,11.53
2018-04-18T19:36:38.280Z,11.60
2018-04-18T19:39:06.580Z,12.33
2018-04-18T19:41:34.990Z,13.40
2018-04-18T19:44:03.278Z,12.97
2018-04-18T19:46:31.565Z,13.40
2018-04-18T19:49:00.332Z,13.40
2018-04-18T19:51:29.313Z,12.20
2018-04-18T19:53:57.613Z,13.13
2018-04-18T19:56:25.972Z,11.63
2018-04-18T19:58:55.010Z,13.03
2018-04-18T20:01:23.309Z,13.00
2018-04-18T20:03:51.671Z,12.57
2018-04-18T20:06:20.530Z,11.07
2018-04-18T20:08:48.878Z,11.57
2018-04-18T20:11:17.277Z,12.40
2018-04-18T20:13:45.768Z,12.07
2018-04-18T20:16:14.089Z,12.23
2018-04-18T20:18:42.471Z,13.03
2018-04-18T20:21:10.946Z,14.07
2018-04-18T20:23:39.312Z,13.00
2018-04-18T20:26:07.605Z,12.47
2018-04-18T20:28:36.334Z,11.80
2018-04-18T20:31:04.631Z,12.87
2018-04-18T20:33:32.930Z,13.50
2018-04-18T20:36:01.307Z,14.20
2018-04-18T20:38:29.725Z,13.73
2018-04-18T20:40:58.425Z,13.13
2018-04-18T20:43:27.483Z,11.93
2018-04-18T20:45:56.222Z,12.70
2018-04-18T20:48:24.507Z,13.83
2018-04-18T20:50:52.793Z,13.77
2018-04-18T20:53:21.153Z,14.00
2018-04-18T20:55:49.466Z,14.60
2018-04-18T20:58:17.753Z,14.00
2018-04-18T21:00:46.059Z,13.77
2018-04-18T21:03:14.716Z,13.60
2018-04-18T21:05:43.030Z,15.03
2018-04-18T21:08:11.334Z,14.43
2018-04-18T21:10:39.630Z,13.63
2018-04-18T21:13:08.244Z,14.40
2018-04-18T21:15:36.949Z,12.37
2018-04-18T21:18:05.509Z,13.67
2018-04-18T21:20:35.040Z,12.70
2018-04-18T21:23:03.320Z,12.57
2018-04-18T21:25:31.624Z,13.90
2018-04-18T21:27:59.947Z,12.50
2018-04-18T21:30:28.809Z,12.93
2018-04-18T21:32:57.129Z,13.23
2018-04-18T21:35:26.492Z,14.30
2018-04-18T21:37:54.785Z,14.20
2018-04-18T21:40:23.077Z,11.00
2018-04-18T21:42:51.787Z,13.67
2018-04-18T21:45:20.073Z,12.70
2018-04-18T21:47:48.349Z,13.00
2018-04-18T21:50:16.642Z,11.90
2018-04-18T21:52:44.922Z,11.53
2018-04-18T21:55:13.317Z,11.30
2018-04-18T21:57:41.604Z,12.97
2018-04-18T22:00:09.890Z,10.77
2018-04-18T22:02:39.249Z,10.97
2018-04-18T22:05:07.750Z,10.70
2018-04-18T22:07:36.047Z,12.60
2018-04-18T22:10:04.658Z,12.67
2018-04-18T22:12:32.928Z,11.43
2018-04-18T22:15:01.476Z,11.93
2018-04-18T22:17:29.804Z,11.53
2018-04-18T22:19:58.343Z,11.50
2018-04-18T22:22:27.041Z,12.27
2018-04-18T22:24:57.138Z,11.40
2018-04-18T22:27:25.779Z,11.47
2018-04-18T22:29:54.809Z,13.13
2018-04-18T22:32:23.357Z,13.20
2018-04-18T22:34:52.383Z,12.03
2018-04-18T22:37:22.401Z,12.30
2018-04-18T22:39:50.685Z,12.03
2018-04-18T22:42:19.017Z,11.30
2018-04-18T22:44:47.295Z,11.30
2018-04-18T22:47:15.590Z,8.63
2018-04-18T22:49:43.885Z,8.40
2018-04-18T22:52:12.175Z,8.47
2018-04-18T22:54:40.465Z,8.20
2018-04-18T22:57:09.082Z,8.30
2018-04-18T22:59:37.425Z,8.63
2018-04-18T23:02:06.102Z,8.50
2018-04-18T23:04:34.454Z,7.50
2018-04-18T23:07:02.721Z,8.87
2018-04-18T23:09:30.997Z,8.00
2018-04-18T23:11:59.279Z,8.13
2018-04-18T23:14:27.885Z,7.50
2018-04-18T23:16:56.181Z,7.97
2018-04-18T23:19:24.876Z,7.73
2018-04-18T23:21:53.165Z,7.87
2018-04-18T23:24:21.443Z,7.60
2018-04-18T23:26:49.802Z,7.83
2018-04-18T23:29:18.480Z,7.50
2018-04-18T23:31:47.142Z,6.97
2018-04-18T23:34:15.500Z,7.77
2018-04-18T23:36:43.748Z,8.10
2018-04-18T23:39:12.048Z,7.90
2018-04-18T23:41:40.391Z,7.90
2018-04-18T23:44:08.665Z,8.17
2018-04-18T23:46:37.347Z,7.23
2018-04-18T23:49:05.678Z,8.00
2018-04-18T23:51:33.978Z,8.00
2018-04-18T23:54:02.710Z,8.00
2018-04-18T23:56:32.761Z,7.67
2018-04-18T23:59:01.040Z,7.97
